createdAt,value
2023-05-09T00:00:39.132Z,16.15
2023-05-09T00:03:06.692Z,16.16
2023-05-09T00:05:34.136Z,16.16
2023-05-09T00:08:02.909Z,16.16
2023-05-09T00:10:30.952Z,16.16
2023-05-09T00:12:59.722Z,16.17
2023-05-09T00:15:28.825Z,16.15
2023-05-09T00:17:56.324Z,16.15
2023-05-09T00:20:23.953Z,16.15
2023-05-09T00:22:51.572Z,16.15
2023-05-09T00:25:20.404Z,16.15
2023-05-09T00:27:47.903Z,16.16
2023-05-09T00:30:15.416Z,16.17
2023-05-09T00:32:43.112Z,16.16
2023-05-09T00:35:10.850Z,16.17
2023-05-09T00:37:38.332Z,16.19
2023-05-09T00:40:06.900Z,16.17
2023-05-09T00:42:35.812Z,16.18
2023-05-09T00:45:03.262Z,16.18
2023-05-09T00:47:30.920Z,16.18
2023-05-09T00:49:59.614Z,16.18
2023-05-09T00:52:27.120Z,16.18
2023-05-09T00:54:55.517Z,16.19
2023-05-09T00:57:23.229Z,16.19
2023-05-09T00:59:52.174Z,16.18
2023-05-09T01:02:19.954Z,16.18
2023-05-09T03:41:59.365Z,16.14
2023-05-09T03:44:26.996Z,16.14
2023-05-09T03:46:54.552Z,16.15
2023-05-09T03:49:22.113Z,16.15
2023-05-09T03:51:49.688Z,16.15
2023-05-09T03:54:17.157Z,16.14
2023-05-09T03:56:44.612Z,16.17
2023-05-09T03:59:13.434Z,16.16
2023-05-09T04:01:40.945Z,16.16
2023-05-09T04:04:08.688Z,16.15
2023-05-09T04:06:37.281Z,16.16
2023-05-09T04:09:04.805Z,16.15
2023-05-09T04:11:32.245Z,16.16
2023-05-09T04:13:59.726Z,16.17
2023-05-09T04:16:28.524Z,16.17
2023-05-09T04:18:55.983Z,16.17
2023-05-09T04:21:23.395Z,16.16
2023-05-09T04:23:51.444Z,16.17
2023-05-09T04:26:19.050Z,16.16
2023-05-09T04:28:46.479Z,16.17
2023-05-09T04:31:14.825Z,16.16
2023-05-09T04:33:43.736Z,16.16
2023-05-09T04:38:38.852Z,16.16
2023-05-09T04:41:06.521Z,16.15
2023-05-09T04:43:34.203Z,16.15
2023-05-09T04:46:02.567Z,16.15
2023-05-09T04:48:30.034Z,16.16
2023-05-09T04:50:58.869Z,16.15
2023-05-09T04:53:26.731Z,16.16
2023-05-09T04:55:54.236Z,16.14
2023-05-09T04:58:21.755Z,16.15
2023-05-09T05:00:50.110Z,16.15
2023-05-09T05:03:18.091Z,16.14
2023-05-09T05:05:45.642Z,16.14
2023-05-09T05:08:14.494Z,16.15
2023-05-09T05:10:41.955Z,16.15
2023-05-09T05:13:09.462Z,16.16
2023-05-09T05:15:36.871Z,16.15
2023-05-09T05:18:04.607Z,16.16
2023-05-09T05:20:32.079Z,16.15
2023-05-09T05:22:59.498Z,16.16
2023-05-09T05:25:28.350Z,16.15
2023-05-09T05:27:55.777Z,16.17
2023-05-09T05:30:23.210Z,16.15
2023-05-09T05:32:50.689Z,16.17
2023-05-09T05:35:19.295Z,16.15
2023-05-09T05:37:48.945Z,16.16
2023-05-09T05:40:16.753Z,16.16
2023-05-09T05:42:46.601Z,16.16
2023-05-09T05:45:14.256Z,16.16
2023-05-09T05:47:41.892Z,16.16
2023-05-09T05:50:11.847Z,16.16
2023-05-09T05:52:39.518Z,16.15
2023-05-09T05:55:07.583Z,16.15
2023-05-09T05:57:35.656Z,16.15
2023-05-09T06:00:06.363Z,16.15
2023-05-09T06:02:33.946Z,16.16
2023-05-09T06:05:01.443Z,16.14
2023-05-09T06:07:28.945Z,16.14
2023-05-09T06:09:56.442Z,16.13
2023-05-09T06:12:25.211Z,16.14
2023-05-09T06:14:53.549Z,16.14
2023-05-09T06:17:22.374Z,16.14
2023-05-09T06:19:50.032Z,16.15
2023-05-09T06:22:17.680Z,16.14
2023-05-09T06:24:45.098Z,16.14
2023-05-09T06:27:12.569Z,16.16
2023-05-09T06:29:40.080Z,16.16
2023-05-09T06:32:07.527Z,16.15
2023-05-09T06:34:36.342Z,16.16
2023-05-09T06:37:03.798Z,16.17
2023-05-09T06:39:31.301Z,16.17
2023-05-09T06:41:58.769Z,16.15
2023-05-09T06:44:26.774Z,16.17
2023-05-09T06:46:54.232Z,16.17
2023-05-09T06:49:21.656Z,16.18
2023-05-09T06:51:50.426Z,16.16
2023-05-09T06:54:18.346Z,16.18
2023-05-09T06:56:45.838Z,16.17
2023-05-09T06:59:13.507Z,16.18
2023-05-09T07:01:41.189Z,16.18
2023-05-09T07:04:08.718Z,16.18
2023-05-09T07:06:36.204Z,16.18
2023-05-09T07:09:05.283Z,16.18
2023-05-09T07:11:35.274Z,16.19
2023-05-09T07:14:02.777Z,16.18
2023-05-09T07:16:30.557Z,16.17
2023-05-09T07:18:58.069Z,16.17
2023-05-09T07:21:25.738Z,16.18
2023-05-09T07:23:53.225Z,16.18
2023-05-09T07:26:22.264Z,16.19
2023-05-09T07:28:49.707Z,16.17
2023-05-09T07:31:17.179Z,16.18
2023-05-09T07:33:44.667Z,16.18
2023-05-09T07:36:13.199Z,16.18
2023-05-09T07:38:40.741Z,16.19
2023-05-09T07:41:08.201Z,16.19
2023-05-09T07:43:37.078Z,16.18
2023-05-09T07:46:04.764Z,16.18
2023-05-09T07:48:32.277Z,16.19
2023-05-09T07:50:59.750Z,16.17
2023-05-09T07:53:27.361Z,16.18
2023-05-09T07:55:54.815Z,16.18
2023-05-09T07:58:22.310Z,16.17
2023-05-09T08:00:51.105Z,16.18
2023-05-09T08:03:20.728Z,16.17
2023-05-09T08:05:48.287Z,16.17
2023-05-09T08:08:15.713Z,16.18
2023-05-09T08:10:43.168Z,16.18
2023-05-09T08:13:10.644Z,16.18
2023-05-09T08:15:38.183Z,16.19
2023-05-09T08:18:07.270Z,16.19
2023-05-09T08:20:34.820Z,16.18
2023-05-09T08:23:02.249Z,16.20
2023-05-09T08:25:29.801Z,16.20
2023-05-09T08:27:57.262Z,16.19
2023-05-09T08:30:24.801Z,16.20
2023-05-09T08:32:52.259Z,16.20
2023-05-09T08:35:21.131Z,16.20
2023-05-09T08:37:48.849Z,16.19
2023-05-09T08:40:17.175Z,16.19
2023-05-09T08:42:45.825Z,16.20
2023-05-09T08:45:14.803Z,16.18
2023-05-09T08:47:42.677Z,16.18
2023-05-09T08:50:11.530Z,16.18
2023-05-09T08:52:40.734Z,16.18
2023-05-09T08:55:08.508Z,16.17
2023-05-09T08:57:36.269Z,16.17
2023-05-09T09:00:06.160Z,16.17
2023-05-09T09:02:33.669Z,16.17
2023-05-09T09:05:02.293Z,16.17
2023-05-09T09:07:31.176Z,16.16
2023-05-09T09:10:00.662Z,16.16
2023-05-09T09:12:28.139Z,16.17
2023-05-09T09:14:56.197Z,16.16
2023-05-09T09:17:27.955Z,16.17
2023-05-09T09:19:56.690Z,16.17
2023-05-09T09:22:24.831Z,16.17
2023-05-09T09:24:52.281Z,16.16
2023-05-09T09:27:21.041Z,16.16
2023-05-09T09:29:48.438Z,16.17
2023-05-09T09:32:15.895Z,16.16
2023-05-09T09:34:43.409Z,16.15
2023-05-09T09:37:10.841Z,16.15
2023-05-09T09:39:38.369Z,16.15
2023-05-09T09:42:13.723Z,16.15
2023-05-09T09:44:42.950Z,16.14
2023-05-09T09:47:11.032Z,16.15
2023-05-09T09:49:38.480Z,16.15
2023-05-09T09:52:05.944Z,16.15
2023-05-09T09:54:33.749Z,16.15
2023-05-09T09:57:01.915Z,16.15
2023-05-09T09:59:29.389Z,16.16
2023-05-09T10:01:59.753Z,16.16
2023-05-09T10:04:28.466Z,16.16
2023-05-09T10:06:56.825Z,16.16
2023-05-09T10:09:24.925Z,16.17
2023-05-09T10:11:53.057Z,16.16
2023-05-09T10:14:22.063Z,16.16
2023-05-09T10:16:50.471Z,16.16
2023-05-09T10:19:23.301Z,16.16
2023-05-09T10:21:52.267Z,16.16
2023-05-09T10:24:23.988Z,16.16
2023-05-09T10:26:53.960Z,16.15
2023-05-09T10:29:23.307Z,16.16
2023-05-09T10:31:54.871Z,16.16
2023-05-09T10:34:26.180Z,16.15
2023-05-09T10:36:54.788Z,16.16
2023-05-09T10:39:23.353Z,16.14
2023-05-09T10:41:51.024Z,16.15
2023-05-09T10:44:19.061Z,16.16
2023-05-09T10:46:47.019Z,16.14
2023-05-09T10:49:15.035Z,16.15
2023-05-09T10:51:43.830Z,16.15
2023-05-09T10:54:16.040Z,16.14
2023-05-09T10:56:43.520Z,16.14
2023-05-09T10:59:26.646Z,16.14
2023-05-09T11:02:00.941Z,16.14
2023-05-09T11:04:28.615Z,16.14
2023-05-09T11:06:57.837Z,16.14
2023-05-09T11:09:28.056Z,16.14
2023-05-09T11:11:56.281Z,16.13
2023-05-09T11:14:30.313Z,16.14
2023-05-09T11:16:58.228Z,16.14
2023-05-09T11:19:43.315Z,16.14
2023-05-09T11:22:15.774Z,16.15
2023-05-09T11:24:46.156Z,16.16
2023-05-09T11:27:17.150Z,16.15
2023-05-09T11:29:45.428Z,16.15
2023-05-09T11:32:14.842Z,16.15
2023-05-09T11:34:44.056Z,16.17
2023-05-09T11:37:12.372Z,16.16
2023-05-09T11:40:00.809Z,16.16
2023-05-09T11:42:30.547Z,16.16
2023-05-09T11:44:58.317Z,16.17
2023-05-09T11:47:26.105Z,16.16
2023-05-09T11:49:53.594Z,16.17
2023-05-09T11:52:21.731Z,16.16
2023-05-09T11:54:49.714Z,16.18
2023-05-09T11:57:18.022Z,16.17
2023-05-09T11:59:46.951Z,16.17
2023-05-09T12:02:14.956Z,16.16
2023-05-09T12:04:42.496Z,16.17
2023-05-09T12:07:12.292Z,16.16
2023-05-09T12:09:39.871Z,16.16
2023-05-09T12:12:12.208Z,16.16
2023-05-09T12:14:40.533Z,16.15
2023-05-09T12:17:09.761Z,16.16
2023-05-09T12:19:37.706Z,16.15
2023-05-09T12:22:06.903Z,16.16
2023-05-09T12:24:36.457Z,16.15
2023-05-09T12:27:04.831Z,16.15
2023-05-09T12:29:32.368Z,16.15
2023-05-09T12:32:00.053Z,16.14
2023-05-09T12:34:28.994Z,16.15
2023-05-09T12:36:58.466Z,16.16
2023-05-09T12:39:26.697Z,16.16
2023-05-09T12:42:01.473Z,16.17
2023-05-09T12:44:29.908Z,16.17
2023-05-09T12:46:58.243Z,16.16
2023-05-09T12:49:26.078Z,16.17
2023-05-09T12:51:55.637Z,16.19
2023-05-09T12:54:23.768Z,16.19
2023-05-09T12:56:53.188Z,16.18
2023-05-09T12:59:24.525Z,16.19
2023-05-09T13:01:52.673Z,16.20
2023-05-09T13:04:20.772Z,16.20
2023-05-09T13:06:51.878Z,16.20
2023-05-09T13:09:20.782Z,16.20
2023-05-09T13:11:48.694Z,16.20
2023-05-09T13:14:16.278Z,16.21
2023-05-09T13:16:44.665Z,16.21
2023-05-09T13:19:12.196Z,16.21
2023-05-09T13:21:39.996Z,16.21
2023-05-09T13:24:07.916Z,16.20
2023-05-09T13:26:36.728Z,16.21
2023-05-09T13:29:04.274Z,16.22
2023-05-09T13:31:31.853Z,16.21
2023-05-09T13:33:59.342Z,16.20
2023-05-09T13:36:26.772Z,16.20
2023-05-09T13:38:54.291Z,16.21
2023-05-09T13:41:22.283Z,16.20
2023-05-09T13:43:51.096Z,16.20
2023-05-09T13:46:18.547Z,16.19
2023-05-09T13:48:47.578Z,16.20
2023-05-09T13:51:15.308Z,16.19
2023-05-09T13:53:42.699Z,16.19
2023-05-09T13:56:10.679Z,16.20
2023-05-09T13:58:38.118Z,16.19
2023-05-09T14:01:07.657Z,16.19
2023-05-09T14:03:35.700Z,16.19
2023-05-09T14:06:03.629Z,16.18
2023-05-09T14:08:31.122Z,16.19
2023-05-09T14:10:59.655Z,16.20
2023-05-09T14:13:27.330Z,16.19
2023-05-09T14:15:54.859Z,16.19
2023-05-09T14:18:23.700Z,16.18
2023-05-09T14:20:51.114Z,16.19
2023-05-09T14:23:19.330Z,16.18
2023-05-09T14:25:46.959Z,16.19
2023-05-09T14:28:14.676Z,16.19
2023-05-09T14:30:42.514Z,16.19
2023-05-09T14:33:09.997Z,16.19
2023-05-09T14:35:41.224Z,16.19
2023-05-09T14:38:09.223Z,16.19
2023-05-09T14:40:37.064Z,16.20
2023-05-09T14:43:04.693Z,16.20
2023-05-09T14:45:32.861Z,16.20
2023-05-09T14:48:00.482Z,16.19
2023-05-09T14:50:28.014Z,16.20
2023-05-09T14:52:56.822Z,16.20
2023-05-09T14:55:24.296Z,16.20
2023-05-09T14:57:51.763Z,16.20
2023-05-09T15:00:21.856Z,16.21
2023-05-09T15:02:50.196Z,16.21
2023-05-09T15:05:17.930Z,16.21
2023-05-09T15:07:45.420Z,16.20
2023-05-09T15:10:14.738Z,16.20
2023-05-09T15:12:42.513Z,16.20
2023-05-09T15:15:13.893Z,16.19
2023-05-09T15:17:41.606Z,16.20
2023-05-09T15:20:09.420Z,16.20
2023-05-09T15:22:36.913Z,16.19
2023-05-09T15:25:06.195Z,16.19
2023-05-09T15:27:35.196Z,16.19
2023-05-09T15:30:02.752Z,16.18
2023-05-09T15:32:30.236Z,16.19
2023-05-09T15:34:57.789Z,16.19
2023-05-09T15:37:25.335Z,16.18
2023-05-09T15:39:52.949Z,16.18
2023-05-09T15:42:20.389Z,16.19
2023-05-09T15:44:49.242Z,16.18
2023-05-09T15:47:16.692Z,16.18
2023-05-09T15:49:44.152Z,16.18
2023-05-09T15:52:11.948Z,16.19
2023-05-09T15:54:40.063Z,16.18
2023-05-09T15:57:08.174Z,16.18
2023-05-09T15:59:35.741Z,16.17
2023-05-09T16:02:04.535Z,16.17
2023-05-09T16:04:33.058Z,16.17
2023-05-09T16:07:01.731Z,16.18
2023-05-09T16:09:29.179Z,16.17
2023-05-09T16:11:56.803Z,16.18
2023-05-09T16:14:24.359Z,16.19
2023-05-09T16:16:53.513Z,16.17
2023-05-09T16:19:22.293Z,16.19
2023-05-09T16:21:50.138Z,16.19
2023-05-09T16:24:17.725Z,16.19
2023-05-09T16:26:45.169Z,16.18
2023-05-09T16:29:13.650Z,16.19
2023-05-09T16:31:41.202Z,16.19
2023-05-09T16:34:09.001Z,16.19
2023-05-09T16:36:38.334Z,16.18
2023-05-09T16:39:06.105Z,16.17
2023-05-09T16:41:33.571Z,16.19
2023-05-09T16:44:01.017Z,16.18
2023-05-09T16:46:28.466Z,16.18
2023-05-09T16:48:56.105Z,16.18
2023-05-09T16:51:23.651Z,16.17
2023-05-09T16:53:52.455Z,16.18
2023-05-09T16:56:19.901Z,16.18
2023-05-09T16:58:49.279Z,16.17
2023-05-09T17:01:16.818Z,16.18
2023-05-09T17:03:44.304Z,16.17
2023-05-09T17:06:11.895Z,16.18
2023-05-09T17:08:39.321Z,16.17
2023-05-09T17:11:09.765Z,16.16
2023-05-09T17:13:37.369Z,16.17
2023-05-09T17:16:05.038Z,16.16
2023-05-09T17:18:37.434Z,16.18
2023-05-09T17:21:05.639Z,16.17
2023-05-09T17:23:33.116Z,16.17
2023-05-09T17:26:00.544Z,16.16
2023-05-09T17:28:29.431Z,16.17
2023-05-09T17:30:57.957Z,16.16
2023-05-09T17:33:25.396Z,16.15
2023-05-09T17:35:52.881Z,16.16
2023-05-09T17:38:20.306Z,16.16
2023-05-09T17:40:47.751Z,16.16
2023-05-09T17:43:15.781Z,16.16
2023-05-09T17:45:45.960Z,16.16
2023-05-09T17:48:13.514Z,16.16
2023-05-09T17:50:41.047Z,16.16
2023-05-09T17:53:09.479Z,16.17
2023-05-09T17:55:37.089Z,16.16
2023-05-09T17:58:04.534Z,16.17
2023-05-09T18:00:32.107Z,16.17
2023-05-09T18:03:01.394Z,16.17
2023-05-09T18:05:28.940Z,16.18
2023-05-09T18:07:57.141Z,16.17
2023-05-09T18:10:24.647Z,16.18
2023-05-09T18:12:52.121Z,16.16
2023-05-09T18:15:19.601Z,16.17
2023-05-09T18:17:48.392Z,16.16
2023-05-09T18:20:17.487Z,16.16
2023-05-09T18:22:45.095Z,16.16
2023-05-09T18:25:12.613Z,16.16
2023-05-09T18:27:40.077Z,16.17
2023-05-09T18:30:08.354Z,16.17
2023-05-09T18:32:35.800Z,16.16
2023-05-09T18:35:04.034Z,16.17
2023-05-09T18:37:32.860Z,16.17
2023-05-09T18:40:00.323Z,16.17
2023-05-09T18:42:28.021Z,16.17
2023-05-09T18:44:55.879Z,16.17
2023-05-09T18:47:23.951Z,16.18
2023-05-09T18:49:51.382Z,16.17
2023-05-09T18:52:20.463Z,16.17
2023-05-09T18:54:49.456Z,16.18
2023-05-09T18:57:16.914Z,16.18
2023-05-09T18:59:45.564Z,16.19
2023-05-09T19:02:12.995Z,16.17
2023-05-09T19:04:40.481Z,16.18
2023-05-09T19:49:18.075Z,16.23
2023-05-09T19:51:45.632Z,16.24
2023-05-09T19:54:14.167Z,16.23
2023-05-09T19:56:41.637Z,16.24
2023-05-09T19:59:09.113Z,16.23
2023-05-09T20:01:36.622Z,16.24
2023-05-09T20:04:04.109Z,16.24
2023-05-09T20:06:32.967Z,16.23
2023-05-09T20:09:00.393Z,16.24
2023-05-09T20:11:27.873Z,16.24
2023-05-09T20:13:55.758Z,16.24
2023-05-09T20:16:23.626Z,16.24
2023-05-09T20:18:52.252Z,16.24
2023-05-09T20:21:19.781Z,16.25
2023-05-09T20:23:48.562Z,16.24
2023-05-09T20:26:16.025Z,16.24
2023-05-09T20:28:43.506Z,16.24
2023-05-09T20:31:11.019Z,16.26
2023-05-09T20:33:39.954Z,16.23
2023-05-09T20:36:09.378Z,16.24
2023-05-09T20:38:36.866Z,16.24
2023-05-09T20:41:05.666Z,16.24
2023-05-09T20:43:33.093Z,16.24
2023-05-09T20:46:00.984Z,16.24
2023-05-09T20:48:28.562Z,16.25
2023-05-09T20:50:56.073Z,16.25
2023-05-09T20:53:26.390Z,16.25
2023-05-09T20:55:54.189Z,16.25
2023-05-09T20:58:23.001Z,16.26
2023-05-09T21:00:50.449Z,16.25
2023-05-09T21:03:18.071Z,16.25
2023-05-09T21:05:45.618Z,16.26
2023-05-09T21:08:13.081Z,16.26
2023-05-09T21:10:41.167Z,16.26
2023-05-09T21:13:08.634Z,16.27
2023-05-09T21:15:37.473Z,16.26
2023-05-09T21:18:05.255Z,16.26
2023-05-09T21:20:32.700Z,16.27
2023-05-09T21:23:00.128Z,16.26
2023-05-09T21:25:27.604Z,16.27
2023-05-09T21:27:56.351Z,16.27
2023-05-09T21:30:23.821Z,16.28
2023-05-09T21:32:52.800Z,16.27
2023-05-09T21:35:20.253Z,16.28
2023-05-09T21:37:48.532Z,16.27
2023-05-09T21:40:16.287Z,16.27
2023-05-09T21:42:44.223Z,16.26
2023-05-09T21:45:11.874Z,16.27
2023-05-09T21:47:39.929Z,16.27
2023-05-09T21:50:09.253Z,16.27
2023-05-09T21:52:36.724Z,16.28
2023-05-09T21:55:04.283Z,16.28
2023-05-09T21:57:31.713Z,16.27
2023-05-09T22:00:01.344Z,16.27
2023-05-09T22:02:29.592Z,16.27
2023-05-09T22:04:57.041Z,16.27
2023-05-09T22:07:25.873Z,16.27
2023-05-09T22:09:54.093Z,16.26
2023-05-09T22:12:21.557Z,16.26
2023-05-09T22:14:56.458Z,16.26
2023-05-09T22:17:24.949Z,16.26
2023-05-09T22:19:52.592Z,16.26
2023-05-09T22:22:20.212Z,16.26
2023-05-09T22:24:49.723Z,16.27
2023-05-09T22:27:17.274Z,16.26
2023-05-09T22:29:45.600Z,16.25
2023-05-09T22:32:13.079Z,16.26
2023-05-09T22:34:40.842Z,16.27
2023-05-09T22:37:08.280Z,16.26
2023-05-09T22:39:35.677Z,16.26
2023-05-09T22:42:04.682Z,16.26
2023-05-09T22:44:32.468Z,16.26
2023-05-09T22:46:59.905Z,16.25
2023-05-09T22:49:27.405Z,16.26
2023-05-09T22:51:54.897Z,16.26
2023-05-09T22:54:22.820Z,16.26
2023-05-09T22:56:50.339Z,16.25
2023-05-09T22:59:19.089Z,16.25
2023-05-09T23:01:47.088Z,16.25
2023-05-09T23:04:14.548Z,16.26
2023-05-09T23:06:42.003Z,16.26
2023-05-09T23:09:10.548Z,16.25
2023-05-09T23:11:38.281Z,16.25
2023-05-09T23:14:06.355Z,16.25
2023-05-09T23:16:35.358Z,16.24
2023-05-09T23:19:02.915Z,16.23
2023-05-09T23:21:30.325Z,16.24
2023-05-09T23:23:57.851Z,16.24
2023-05-09T23:29:06.710Z,16.23
2023-05-09T23:31:35.757Z,16.23
2023-05-09T23:34:03.216Z,16.22
2023-05-09T23:36:31.047Z,16.23
2023-05-09T23:38:58.496Z,16.23
2023-05-09T23:41:25.920Z,16.22
2023-05-09T23:43:53.356Z,16.22
2023-05-09T23:46:21.157Z,16.23
2023-05-09T23:48:50.370Z,16.23
2023-05-09T23:51:19.977Z,16.22
2023-05-09T23:53:47.418Z,16.21
2023-05-09T23:56:14.931Z,16.22
2023-05-09T23:58:43.048Z,16.22
